Time;durP1;ratioP1;P1;durP2;ratioP2;P2;SDS_P1;SDS_P2;PMS_P1;PMS_P2;Temp;Humidity;BMP_temperature;BMP_pressure;BME280_temperature;BME280_humidity;BME280_pressure;Samples;Min_cycle;Max_cycle;Signal;HPM_P1;HPM_P2
2023/06/26 00:01:09;;;;;;;14.70;10.93;;;;;;;;;;5016485;28;20041;-76
2023/06/26 00:03:35;;;;;;;16.33;10.48;;;;;;;;;;5041346;28;20436;-74
2023/06/26 00:06:01;;;;;;;14.68;11.25;;;;;;;;;;5031393;28;20033;-75
2023/06/26 00:08:28;;;;;;;12.48;10.52;;;;;;;;;;5032113;28;20025;-74
2023/06/26 00:10:54;;;;;;;15.82;11.00;;;;;;;;;;5032450;28;20029;-74
2023/06/26 00:13:20;;;;;;;15.65;10.60;;;;;;;;;;5031219;28;20030;-76
2023/06/26 00:15:46;;;;;;;14.93;10.55;;;;;;;;;;5031644;28;20022;-73
2023/06/26 00:18:12;;;;;;;13.52;10.82;;;;;;;;;;5032032;28;20147;-74
2023/06/26 00:20:38;;;;;;;13.88;10.48;;;;;;;;;;5030866;28;20022;-73
2023/06/26 00:23:07;;;;;;;14.52;11.20;;;;;;;;;;5031707;28;20127;-73
2023/06/26 00:25:33;;;;;;;13.25;10.93;;;;;;;;;;5029895;28;20037;-76
2023/06/26 00:27:59;;;;;;;16.02;12.00;;;;;;;;;;5032011;28;20029;-75
2023/06/26 00:30:25;;;;;;;13.27;11.38;;;;;;;;;;5031868;28;20052;-74
2023/06/26 00:32:51;;;;;;;16.33;11.52;;;;;;;;;;5031094;28;20025;-75
2023/06/26 00:35:17;;;;;;;12.52;10.88;;;;;;;;;;5031504;28;20024;-74
2023/06/26 00:37:43;;;;;;;16.63;10.23;;;;;;;;;;5035063;28;20073;-74
2023/06/26 00:40:09;;;;;;;14.13;11.23;;;;;;;;;;5035504;28;20419;-75
2023/06/26 00:42:35;;;;;;;14.98;11.88;;;;;;;;;;5034426;28;20120;-74
2023/06/26 00:45:01;;;;;;;15.02;10.63;;;;;;;;;;5035742;28;20072;-74
2023/06/26 00:47:28;;;;;;;14.77;11.48;;;;;;;;;;5035830;28;20045;-74
2023/06/26 00:49:55;;;;;;;13.85;11.45;;;;;;;;;;5035967;28;20033;-74
2023/06/26 00:52:21;;;;;;;13.18;11.45;;;;;;;;;;5035431;28;20022;-76
2023/06/26 00:54:47;;;;;;;16.55;11.15;;;;;;;;;;5034723;28;20526;-75
2023/06/26 00:57:13;;;;;;;17.58;11.73;;;;;;;;;;5035686;28;20040;-74
2023/06/26 00:59:39;;;;;;;15.65;10.93;;;;;;;;;;5035298;28;20057;-73
2023/06/26 01:02:05;;;;;;;16.27;12.10;;;;;;;;;;5035264;28;20018;-74
2023/06/26 01:04:32;;;;;;;13.90;11.68;;;;;;;;;;5034806;28;20096;-73
2023/06/26 01:06:59;;;;;;;14.85;11.55;;;;;;;;;;5034776;28;20080;-74
2023/06/26 01:09:26;;;;;;;14.13;11.30;;;;;;;;;;5036226;28;20126;-73
2023/06/26 01:11:52;;;;;;;16.20;12.48;;;;;;;;;;5036573;28;20018;-73
2023/06/26 01:14:18;;;;;;;13.82;11.85;;;;;;;;;;5035830;28;20030;-73
2023/06/26 01:16:47;;;;;;;18.30;12.15;;;;;;;;;;5034663;28;20114;-74
2023/06/26 01:19:39;;;;;;;16.63;12.27;;;;;;;;;;5034453;28;20022;-74
2023/06/26 01:22:14;;;;;;;14.65;11.65;;;;;;;;;;5033563;28;20143;-73
2023/06/26 01:24:42;;;;;;;15.73;11.75;;;;;;;;;;5033063;28;20029;-73
2023/06/26 01:27:08;;;;;;;18.63;12.18;;;;;;;;;;5033988;28;20033;-74
2023/06/26 01:29:34;;;;;;;13.90;12.02;;;;;;;;;;5034125;28;20030;-74
2023/06/26 01:32:01;;;;;;;13.10;11.27;;;;;;;;;;5033305;28;20431;-73
2023/06/26 01:34:27;;;;;;;15.05;11.93;;;;;;;;;;5033784;28;20029;-74
2023/06/26 01:36:53;;;;;;;18.00;11.80;;;;;;;;;;5033821;28;20556;-73
2023/06/26 01:39:20;;;;;;;14.13;11.48;;;;;;;;;;5032958;28;20049;-73
2023/06/26 01:41:46;;;;;;;15.27;12.20;;;;;;;;;;5033463;28;20052;-73
2023/06/26 01:44:16;;;;;;;18.83;12.95;;;;;;;;;;5033805;28;20056;-74
2023/06/26 01:47:01;;;;;;;14.00;11.75;;;;;;;;;;5033724;28;20112;-73
2023/06/26 01:49:31;;;;;;;15.27;11.60;;;;;;;;;;5032788;28;20029;-74
2023/06/26 01:52:07;;;;;;;14.77;11.68;;;;;;;;;;5032978;28;20048;-73
2023/06/26 01:54:35;;;;;;;15.43;11.88;;;;;;;;;;5033572;28;20024;-74
2023/06/26 01:57:01;;;;;;;14.18;11.88;;;;;;;;;;5033104;28;20103;-75
2023/06/26 01:59:28;;;;;;;14.13;11.95;;;;;;;;;;5033178;28;20030;-75
2023/06/26 02:01:54;;;;;;;14.82;11.68;;;;;;;;;;5034236;28;20487;-74
2023/06/26 02:04:20;;;;;;;15.18;11.88;;;;;;;;;;5035237;28;20033;-74
2023/06/26 02:06:46;;;;;;;15.48;11.77;;;;;;;;;;5035353;28;20029;-74
2023/06/26 02:09:12;;;;;;;14.55;11.93;;;;;;;;;;5032177;28;20037;-73
2023/06/26 02:11:38;;;;;;;16.33;11.93;;;;;;;;;;5032611;28;20100;-73
2023/06/26 02:14:04;;;;;;;15.70;12.75;;;;;;;;;;5031580;28;20030;-74
2023/06/26 02:16:30;;;;;;;17.45;12.77;;;;;;;;;;5033443;28;20034;-74
2023/06/26 02:18:57;;;;;;;15.65;12.18;;;;;;;;;;5034207;28;20029;-74
2023/06/26 02:21:23;;;;;;;17.90;12.27;;;;;;;;;;5032732;28;20067;-73
2023/06/26 02:23:49;;;;;;;16.95;12.13;;;;;;;;;;5031048;28;20030;-74
2023/06/26 02:26:15;;;;;;;19.30;12.48;;;;;;;;;;5033261;28;20074;-74
2023/06/26 02:28:41;;;;;;;15.57;12.65;;;;;;;;;;5037072;28;20421;-74
2023/06/26 02:31:07;;;;;;;16.40;12.20;;;;;;;;;;5034589;28;20037;-73
2023/06/26 02:33:33;;;;;;;17.50;12.23;;;;;;;;;;5034741;28;20107;-74
2023/06/26 02:35:59;;;;;;;19.00;12.98;;;;;;;;;;5032441;28;20040;-73
2023/06/26 02:38:25;;;;;;;15.00;11.65;;;;;;;;;;5032668;28;20029;-72
2023/06/26 02:40:51;;;;;;;15.23;12.52;;;;;;;;;;5031579;28;20021;-72
2023/06/26 02:43:17;;;;;;;14.60;11.90;;;;;;;;;;5030643;28;20063;-72
2023/06/26 02:45:43;;;;;;;18.92;12.48;;;;;;;;;;5031254;28;20390;-72
2023/06/26 02:48:09;;;;;;;18.10;12.35;;;;;;;;;;5031586;28;20060;-72
2023/06/26 02:50:35;;;;;;;15.63;12.50;;;;;;;;;;5031419;28;20042;-72
2023/06/26 02:53:01;;;;;;;14.90;12.63;;;;;;;;;;5030789;28;20104;-71
2023/06/26 02:55:27;;;;;;;15.82;12.60;;;;;;;;;;5031274;28;20458;-71
2023/06/26 02:57:53;;;;;;;16.13;12.75;;;;;;;;;;5031396;28;20049;-71
2023/06/26 03:00:19;;;;;;;21.40;12.27;;;;;;;;;;5030949;28;20061;-72
2023/06/26 03:02:45;;;;;;;18.88;12.43;;;;;;;;;;5030480;28;20060;-72
2023/06/26 03:05:13;;;;;;;19.83;12.95;;;;;;;;;;5031264;28;20061;-72
2023/06/26 03:07:39;;;;;;;16.10;12.65;;;;;;;;;;5031148;28;20075;-72
2023/06/26 03:10:05;;;;;;;17.33;12.13;;;;;;;;;;5031177;28;20033;-72
2023/06/26 03:12:31;;;;;;;17.13;12.80;;;;;;;;;;5031311;28;20025;-72
2023/06/26 03:14:57;;;;;;;17.90;12.25;;;;;;;;;;5032001;28;20033;-72
2023/06/26 03:17:23;;;;;;;16.13;12.43;;;;;;;;;;5031925;28;20065;-73
2023/06/26 03:19:49;;;;;;;14.15;11.85;;;;;;;;;;5032260;28;20068;-72
2023/06/26 03:22:15;;;;;;;16.15;12.80;;;;;;;;;;5031775;28;20479;-72
2023/06/26 03:24:41;;;;;;;16.85;12.50;;;;;;;;;;5032111;28;20026;-72
2023/06/26 03:27:09;;;;;;;17.60;12.43;;;;;;;;;;5030590;28;20021;-71
2023/06/26 03:29:35;;;;;;;17.08;12.20;;;;;;;;;;5031726;28;20542;-70
2023/06/26 03:32:01;;;;;;;17.05;12.20;;;;;;;;;;5031298;28;20033;-73
2023/06/26 03:34:27;;;;;;;16.30;12.25;;;;;;;;;;5031781;28;20061;-71
2023/06/26 03:36:53;;;;;;;15.13;11.95;;;;;;;;;;5031542;28;20022;-71
2023/06/26 03:39:19;;;;;;;17.60;14.07;;;;;;;;;;5031700;28;20097;-72
2023/06/26 03:41:45;;;;;;;17.85;12.40;;;;;;;;;;5031184;28;20083;-71
2023/06/26 03:44:12;;;;;;;19.95;12.00;;;;;;;;;;5031327;28;20064;-73
2023/06/26 03:46:38;;;;;;;14.73;11.73;;;;;;;;;;5032252;28;20028;-73
2023/06/26 03:49:04;;;;;;;18.83;12.55;;;;;;;;;;5031429;28;20100;-73
2023/06/26 03:51:30;;;;;;;14.20;11.70;;;;;;;;;;5031187;28;20238;-72
2023/06/26 03:53:56;;;;;;;18.20;12.63;;;;;;;;;;5031161;28;20057;-71
2023/06/26 03:56:21;;;;;;;15.32;11.52;;;;;;;;;;5031950;28;20502;-72
2023/06/26 03:58:47;;;;;;;17.15;11.85;;;;;;;;;;5031334;28;20083;-71
2023/06/26 04:01:13;;;;;;;19.42;12.02;;;;;;;;;;5030989;28;20025;-72
2023/06/26 04:03:39;;;;;;;17.30;11.75;;;;;;;;;;5031120;28;20507;-71
2023/06/26 04:06:05;;;;;;;17.75;12.30;;;;;;;;;;5031309;28;20072;-72
2023/06/26 04:08:31;;;;;;;16.75;11.43;;;;;;;;;;5030680;28;20100;-71
2023/06/26 04:10:58;;;;;;;16.48;11.55;;;;;;;;;;5031424;28;20040;-73
2023/06/26 04:13:24;;;;;;;16.73;11.48;;;;;;;;;;5034690;28;20384;-71
2023/06/26 04:15:50;;;;;;;18.08;12.00;;;;;;;;;;5035132;28;20030;-72
2023/06/26 04:18:16;;;;;;;16.52;10.75;;;;;;;;;;5036093;28;20464;-72
2023/06/26 04:21:02;;;;;;;16.23;11.95;;;;;;;;;;5036063;28;20041;-72
2023/06/26 04:23:28;;;;;;;14.57;10.88;;;;;;;;;;5035296;28;20029;-71
2023/06/26 04:25:54;;;;;;;21.55;11.75;;;;;;;;;;5034962;28;20030;-73
2023/06/26 04:28:20;;;;;;;16.92;12.00;;;;;;;;;;5034597;28;20376;-72
2023/06/26 04:30:46;;;;;;;19.65;11.32;;;;;;;;;;5034739;28;20029;-74
2023/06/26 04:33:12;;;;;;;12.35;10.68;;;;;;;;;;5034631;28;20030;-72
2023/06/26 04:35:38;;;;;;;17.98;11.50;;;;;;;;;;5035196;28;20022;-71
2023/06/26 04:38:04;;;;;;;15.52;11.18;;;;;;;;;;5034821;28;20026;-72
2023/06/26 04:40:30;;;;;;;15.73;11.60;;;;;;;;;;5034656;28;20371;-72
2023/06/26 04:42:56;;;;;;;16.67;11.48;;;;;;;;;;5034165;28;20021;-71
2023/06/26 04:45:22;;;;;;;15.65;11.38;;;;;;;;;;5034305;28;20029;-72
2023/06/26 04:47:48;;;;;;;17.70;11.00;;;;;;;;;;5034511;28;20033;-73
2023/06/26 04:50:14;;;;;;;18.65;11.02;;;;;;;;;;5034427;28;20107;-71
2023/06/26 04:52:40;;;;;;;16.52;11.20;;;;;;;;;;5033948;28;20030;-73
2023/06/26 04:55:06;;;;;;;20.48;10.90;;;;;;;;;;5034345;28;20104;-72
2023/06/26 04:57:32;;;;;;;19.63;11.45;;;;;;;;;;5034442;28;20415;-72
2023/06/26 04:59:58;;;;;;;16.30;10.70;;;;;;;;;;5033987;28;20106;-72
2023/06/26 05:02:26;;;;;;;18.75;12.00;;;;;;;;;;5033893;28;20035;-71
2023/06/26 05:04:52;;;;;;;18.17;11.05;;;;;;;;;;5034565;28;20021;-72
2023/06/26 05:07:18;;;;;;;15.30;11.20;;;;;;;;;;5034052;28;20031;-72
2023/06/26 05:09:44;;;;;;;15.57;10.35;;;;;;;;;;5034292;28;20095;-73
2023/06/26 05:12:11;;;;;;;23.55;11.32;;;;;;;;;;5033324;28;20479;-72
2023/06/26 05:14:38;;;;;;;16.15;9.73;;;;;;;;;;5033961;28;20044;-73
2023/06/26 05:17:04;;;;;;;14.63;10.38;;;;;;;;;;5034130;28;20026;-72
2023/06/26 05:19:30;;;;;;;17.50;10.32;;;;;;;;;;5034076;28;20098;-72
2023/06/26 05:21:56;;;;;;;17.27;10.77;;;;;;;;;;5033483;28;20057;-70
2023/06/26 05:24:23;;;;;;;18.13;10.38;;;;;;;;;;5034086;28;20059;-72
2023/06/26 05:26:49;;;;;;;15.43;10.18;;;;;;;;;;5039555;28;20390;-72
2023/06/26 05:29:15;;;;;;;20.73;10.15;;;;;;;;;;5033577;28;20052;-72
2023/06/26 05:31:42;;;;;;;16.35;10.40;;;;;;;;;;5035507;28;20028;-71
2023/06/26 05:34:10;;;;;;;16.60;9.27;;;;;;;;;;5037934;28;20112;-71
2023/06/26 05:36:36;;;;;;;18.58;10.63;;;;;;;;;;5035997;28;20017;-71
2023/06/26 05:39:03;;;;;;;13.38;9.00;;;;;;;;;;5033633;28;20387;-72
2023/06/26 05:41:29;;;;;;;19.40;10.05;;;;;;;;;;5034877;28;20022;-72
2023/06/26 05:43:55;;;;;;;15.80;9.25;;;;;;;;;;5032366;28;20033;-72
2023/06/26 05:46:22;;;;;;;18.98;9.45;;;;;;;;;;5033570;28;20158;-73
2023/06/26 05:48:48;;;;;;;18.27;10.27;;;;;;;;;;5036031;28;20473;-73
2023/06/26 05:51:14;;;;;;;13.50;9.18;;;;;;;;;;5038279;28;20120;-75
2023/06/26 05:53:40;;;;;;;15.93;9.10;;;;;;;;;;5032732;28;20060;-75
2023/06/26 05:56:06;;;;;;;14.90;8.98;;;;;;;;;;5033331;28;20033;-77
2023/06/26 05:58:33;;;;;;;12.05;8.82;;;;;;;;;;5040832;28;20029;-74
2023/06/26 06:00:59;;;;;;;16.33;8.80;;;;;;;;;;5032538;28;20104;-71
2023/06/26 06:03:25;;;;;;;15.60;8.70;;;;;;;;;;5032107;28;20108;-72
2023/06/26 06:05:51;;;;;;;13.65;8.40;;;;;;;;;;5033549;28;20025;-72
2023/06/26 06:08:17;;;;;;;15.90;9.10;;;;;;;;;;5037002;28;20036;-71
2023/06/26 06:10:43;;;;;;;13.82;9.10;;;;;;;;;;5032460;28;20084;-74
2023/06/26 06:13:09;;;;;;;12.80;8.63;;;;;;;;;;5031958;28;20025;-72
2023/06/26 06:15:35;;;;;;;14.45;8.93;;;;;;;;;;5032730;28;20502;-71
2023/06/26 06:18:01;;;;;;;20.45;8.88;;;;;;;;;;5032535;28;20017;-71
2023/06/26 06:20:27;;;;;;;13.30;8.70;;;;;;;;;;5032523;28;20487;-71
2023/06/26 06:22:53;;;;;;;15.32;8.48;;;;;;;;;;5032374;28;20033;-70
2023/06/26 06:25:19;;;;;;;12.07;8.95;;;;;;;;;;5032186;28;20104;-71
2023/06/26 06:27:45;;;;;;;16.83;8.88;;;;;;;;;;5032636;28;20026;-73
2023/06/26 06:30:11;;;;;;;13.88;8.48;;;;;;;;;;5032685;28;20026;-70
2023/06/26 06:32:37;;;;;;;14.25;10.23;;;;;;;;;;5032115;28;20030;-72
2023/06/26 06:35:09;;;;;;;15.35;8.90;;;;;;;;;;5031688;28;20025;-71
2023/06/26 06:37:35;;;;;;;14.35;9.52;;;;;;;;;;5032428;28;20437;-71
2023/06/26 06:40:01;;;;;;;14.52;8.65;;;;;;;;;;5032609;28;20100;-72
2023/06/26 06:42:27;;;;;;;15.85;9.10;;;;;;;;;;5032261;28;20056;-71
2023/06/26 06:44:53;;;;;;;18.85;9.18;;;;;;;;;;5032146;28;20107;-72
2023/06/26 06:47:19;;;;;;;13.88;8.90;;;;;;;;;;5030985;28;20029;-72
2023/06/26 06:49:45;;;;;;;12.70;9.13;;;;;;;;;;5032699;28;20109;-71
2023/06/26 06:52:10;;;;;;;14.80;9.35;;;;;;;;;;5032116;28;20089;-71
2023/06/26 06:54:53;;;;;;;17.17;11.13;;;;;;;;;;5032155;28;20025;-73
2023/06/26 06:57:19;;;;;;;16.85;9.63;;;;;;;;;;5032537;28;20467;-71
2023/06/26 06:59:45;;;;;;;14.80;9.27;;;;;;;;;;5032724;28;20025;-73
2023/06/26 07:02:11;;;;;;;17.10;8.98;;;;;;;;;;5031799;28;20031;-72
2023/06/26 07:04:37;;;;;;;14.73;9.07;;;;;;;;;;5031889;28;20386;-71
2023/06/26 07:07:03;;;;;;;20.35;9.52;;;;;;;;;;5031807;28;20060;-72
2023/06/26 07:09:29;;;;;;;13.57;9.07;;;;;;;;;;5031584;28;20446;-72
2023/06/26 07:11:55;;;;;;;22.67;9.35;;;;;;;;;;5031523;28;20021;-72
2023/06/26 07:14:21;;;;;;;17.92;9.77;;;;;;;;;;5031874;28;20033;-73
2023/06/26 07:16:47;;;;;;;19.83;9.60;;;;;;;;;;5031830;28;20079;-71
2023/06/26 07:19:13;;;;;;;14.32;8.93;;;;;;;;;;5031749;28;20104;-72
2023/06/26 07:21:41;;;;;;;13.65;9.05;;;;;;;;;;5031548;28;20026;-71
2023/06/26 07:24:07;;;;;;;19.05;8.45;;;;;;;;;;5031384;28;20036;-72
2023/06/26 07:26:33;;;;;;;12.20;8.55;;;;;;;;;;5031994;28;20167;-72
2023/06/26 07:28:59;;;;;;;16.90;8.75;;;;;;;;;;5031572;28;20395;-73
2023/06/26 07:31:25;;;;;;;12.35;8.68;;;;;;;;;;5031529;28;20033;-71
2023/06/26 07:33:51;;;;;;;19.60;9.73;;;;;;;;;;5031092;28;20030;-72
2023/06/26 07:36:17;;;;;;;16.38;8.52;;;;;;;;;;5031394;28;20502;-72
2023/06/26 07:38:43;;;;;;;17.02;9.70;;;;;;;;;;5031571;28;20025;-71
2023/06/26 07:41:09;;;;;;;20.05;8.63;;;;;;;;;;5032116;28;20022;-73
2023/06/26 07:43:35;;;;;;;12.20;8.95;;;;;;;;;;5031960;28;20029;-72
2023/06/26 07:46:01;;;;;;;16.65;8.90;;;;;;;;;;5031674;28;20079;-72
2023/06/26 07:48:27;;;;;;;16.27;8.70;;;;;;;;;;5031577;28;20479;-73
2023/06/26 07:50:53;;;;;;;17.40;8.95;;;;;;;;;;5031721;28;20071;-71
2023/06/26 07:53:19;;;;;;;14.02;8.60;;;;;;;;;;5031386;28;20033;-71
2023/06/26 07:55:45;;;;;;;11.93;8.35;;;;;;;;;;5032012;28;20475;-72
2023/06/26 07:58:11;;;;;;;13.32;8.30;;;;;;;;;;5031390;28;20117;-71
2023/06/26 08:00:37;;;;;;;16.23;8.45;;;;;;;;;;5031470;28;20030;-71
2023/06/26 08:03:04;;;;;;;17.17;9.05;;;;;;;;;;5031006;28;20029;-72
2023/06/26 08:05:30;;;;;;;11.20;8.00;;;;;;;;;;5031164;28;20025;-71
2023/06/26 08:07:56;;;;;;;20.50;9.43;;;;;;;;;;5031213;28;20040;-72
2023/06/26 08:10:22;;;;;;;17.20;8.88;;;;;;;;;;5031054;28;20065;-72
2023/06/26 08:12:50;;;;;;;12.88;8.85;;;;;;;;;;5030712;28;20061;-73
2023/06/26 08:15:16;;;;;;;10.82;8.20;;;;;;;;;;5031089;28;20032;-72
2023/06/26 08:17:42;;;;;;;16.77;7.90;;;;;;;;;;5031211;28;20033;-72
2023/06/26 08:20:08;;;;;;;20.55;9.07;;;;;;;;;;5031543;28;20021;-73
2023/06/26 08:22:34;;;;;;;12.57;8.50;;;;;;;;;;5031490;28;20082;-72
2023/06/26 08:25:00;;;;;;;18.13;8.43;;;;;;;;;;5030762;28;20380;-73
2023/06/26 08:27:26;;;;;;;14.60;8.93;;;;;;;;;;5031061;28;20036;-73
2023/06/26 08:29:52;;;;;;;12.00;8.30;;;;;;;;;;5031444;28;20347;-73
2023/06/26 08:32:18;;;;;;;15.13;8.55;;;;;;;;;;5030714;28;20029;-72
2023/06/26 08:34:44;;;;;;;10.93;7.70;;;;;;;;;;5031068;28;20498;-72
2023/06/26 08:37:10;;;;;;;13.35;7.53;;;;;;;;;;5030849;28;20025;-72
2023/06/26 08:39:36;;;;;;;12.60;8.57;;;;;;;;;;5030969;28;20533;-72
2023/06/26 08:42:02;;;;;;;10.95;8.02;;;;;;;;;;5030460;28;20064;-72
2023/06/26 08:44:28;;;;;;;12.02;8.25;;;;;;;;;;5030769;28;20079;-72
2023/06/26 08:46:54;;;;;;;10.02;8.07;;;;;;;;;;5029395;28;20022;-74
2023/06/26 08:49:39;;;;;;;15.30;8.77;;;;;;;;;;5030980;28;20035;-72
2023/06/26 08:52:15;;;;;;;13.40;9.30;;;;;;;;;;5030636;28;20422;-73
2023/06/26 08:54:46;;;;;;;13.27;9.52;;;;;;;;;;5028010;28;20100;-73
2023/06/26 08:57:12;;;;;;;14.77;9.18;;;;;;;;;;5030857;28;20021;-71
2023/06/26 08:59:39;;;;;;;15.23;10.57;;;;;;;;;;5033360;28;20029;-72
2023/06/26 09:02:05;;;;;;;14.48;9.98;;;;;;;;;;5032819;28;20030;-70
2023/06/26 09:04:31;;;;;;;12.55;9.20;;;;;;;;;;5033380;28;20033;-72
2023/06/26 09:06:57;;;;;;;12.93;9.60;;;;;;;;;;5033501;28;20052;-72
2023/06/26 09:09:23;;;;;;;19.10;11.80;;;;;;;;;;5033391;28;20041;-72
2023/06/26 09:11:49;;;;;;;16.85;10.30;;;;;;;;;;5032729;28;20340;-72
2023/06/26 09:14:15;;;;;;;15.68;10.60;;;;;;;;;;5032845;28;20041;-73
2023/06/26 09:16:42;;;;;;;21.10;11.25;;;;;;;;;;5033818;28;20396;-72
2023/06/26 09:19:12;;;;;;;16.77;10.93;;;;;;;;;;5033440;28;20030;-72
2023/06/26 09:21:41;;;;;;;25.45;12.10;;;;;;;;;;5031742;28;20033;-72
2023/06/26 09:24:08;;;;;;;21.45;12.10;;;;;;;;;;5033275;28;20376;-72
2023/06/26 09:26:36;;;;;;;16.65;11.13;;;;;;;;;;5033307;28;20124;-73
2023/06/26 09:29:02;;;;;;;21.73;11.50;;;;;;;;;;5033320;28;20048;-72
2023/06/26 09:31:29;;;;;;;25.13;12.10;;;;;;;;;;5034087;28;20029;-73
2023/06/26 09:34:08;;;;;;;17.05;10.63;;;;;;;;;;5033638;28;20400;-72
2023/06/26 09:36:36;;;;;;;27.52;11.80;;;;;;;;;;5034085;28;20022;-72
2023/06/26 09:39:08;;;;;;;29.30;10.95;;;;;;;;;;5034792;28;20027;-73
2023/06/26 09:41:34;;;;;;;27.02;12.50;;;;;;;;;;5033866;28;20625;-72
2023/06/26 09:44:02;;;;;;;26.85;12.30;;;;;;;;;;5033869;28;20105;-72
2023/06/26 09:46:29;;;;;;;21.08;11.48;;;;;;;;;;5033805;28;20026;-72
2023/06/26 09:49:06;;;;;;;17.88;10.50;;;;;;;;;;5033725;28;20030;-73
2023/06/26 09:51:33;;;;;;;26.88;13.65;;;;;;;;;;5033988;28;20029;-75
2023/06/26 09:54:00;;;;;;;19.58;12.00;;;;;;;;;;5033627;28;20025;-73
2023/06/26 09:56:27;;;;;;;23.58;12.52;;;;;;;;;;5034219;28;20114;-72
2023/06/26 09:58:54;;;;;;;21.23;12.93;;;;;;;;;;5033367;28;20028;-71
2023/06/26 10:01:20;;;;;;;19.20;13.02;;;;;;;;;;5033346;28;20044;-72
2023/06/26 10:03:46;;;;;;;20.45;12.75;;;;;;;;;;5033204;28;20025;-73
2023/06/26 10:06:13;;;;;;;25.55;12.52;;;;;;;;;;5033676;28;20524;-73
2023/06/26 10:08:40;;;;;;;21.65;13.73;;;;;;;;;;5032042;28;20419;-73
2023/06/26 10:11:07;;;;;;;30.45;13.82;;;;;;;;;;5033285;28;20091;-72
2023/06/26 10:13:35;;;;;;;25.85;14.52;;;;;;;;;;5032841;28;20026;-72
2023/06/26 10:16:01;;;;;;;24.95;14.40;;;;;;;;;;5033269;28;20391;-73
2023/06/26 10:18:28;;;;;;;24.55;14.30;;;;;;;;;;5033245;28;20025;-74
2023/06/26 10:20:56;;;;;;;29.83;14.40;;;;;;;;;;5032819;28;20017;-71
2023/06/26 10:23:22;;;;;;;30.35;15.23;;;;;;;;;;5032684;28;20029;-73
2023/06/26 10:25:51;;;;;;;32.58;16.23;;;;;;;;;;5032916;28;20074;-71
2023/06/26 10:28:18;;;;;;;21.95;14.60;;;;;;;;;;5032799;28;20025;-73
2023/06/26 10:30:45;;;;;;;17.75;10.90;;;;;;;;;;5032531;28;20368;-72
2023/06/26 10:33:11;;;;;;;17.70;10.57;;;;;;;;;;5032761;28;20421;-73
2023/06/26 10:35:47;;;;;;;24.88;11.93;;;;;;;;;;5033375;28;20060;-71
2023/06/26 10:38:13;;;;;;;17.83;10.55;;;;;;;;;;5032875;28;20025;-72
2023/06/26 10:40:49;;;;;;;19.88;10.38;;;;;;;;;;5033803;28;20025;-73
2023/06/26 10:43:16;;;;;;;20.33;13.88;;;;;;;;;;5032303;28;20052;-71
2023/06/26 10:45:54;;;;;;;16.85;9.50;;;;;;;;;;5032584;28;20053;-72
2023/06/26 10:48:21;;;;;;;25.20;15.35;;;;;;;;;;5032902;28;20576;-72
2023/06/26 10:50:50;;;;;;;18.65;10.55;;;;;;;;;;5032379;28;20053;-72
2023/06/26 10:53:20;;;;;;;18.50;8.90;;;;;;;;;;5032060;28;20029;-72
2023/06/26 10:55:51;;;;;;;17.65;9.70;;;;;;;;;;5032665;28;20029;-73
2023/06/26 10:58:38;;;;;;;18.27;9.25;;;;;;;;;;5032315;28;20029;-72
2023/06/26 11:01:13;;;;;;;19.02;10.45;;;;;;;;;;5033369;28;20025;-71
2023/06/26 11:03:40;;;;;;;17.05;8.80;;;;;;;;;;5031887;28;20104;-72
2023/06/26 11:06:09;;;;;;;24.67;9.00;;;;;;;;;;5032182;28;20561;-76
2023/06/26 11:08:47;;;;;;;25.55;9.15;;;;;;;;;;5032126;28;20442;-72
2023/06/26 11:11:13;;;;;;;24.38;8.88;;;;;;;;;;5031624;28;20040;-73
2023/06/26 11:13:40;;;;;;;26.30;9.40;;;;;;;;;;5030273;28;20033;-72
2023/06/26 11:16:06;;;;;;;22.73;9.35;;;;;;;;;;5031923;28;20031;-73
2023/06/26 11:18:32;;;;;;;26.75;8.13;;;;;;;;;;5033844;28;20021;-73
2023/06/26 11:21:06;;;;;;;21.92;7.82;;;;;;;;;;5031783;28;20091;-72
2023/06/26 11:23:33;;;;;;;21.17;5.93;;;;;;;;;;5030623;28;20068;-72
2023/06/26 11:25:59;;;;;;;17.52;6.78;;;;;;;;;;5031786;28;20033;-73
2023/06/26 11:28:25;;;;;;;23.20;6.53;;;;;;;;;;5031672;28;20034;-71
2023/06/26 11:30:52;;;;;;;17.02;6.47;;;;;;;;;;5031341;28;20388;-71
2023/06/26 11:33:18;;;;;;;21.25;6.50;;;;;;;;;;5031191;28;20034;-71
2023/06/26 11:35:44;;;;;;;21.80;5.50;;;;;;;;;;5031652;28;20017;-72
2023/06/26 11:38:10;;;;;;;22.50;5.63;;;;;;;;;;5031712;28;20033;-76
2023/06/26 11:40:37;;;;;;;19.38;5.40;;;;;;;;;;5031355;28;20025;-73
2023/06/26 11:43:03;;;;;;;20.88;5.80;;;;;;;;;;5031658;28;20028;-73
2023/06/26 11:45:30;;;;;;;16.67;5.15;;;;;;;;;;5031733;28;20072;-73
2023/06/26 11:48:00;;;;;;;33.78;12.73;;;;;;;;;;5036483;28;20024;-72
2023/06/26 11:50:26;;;;;;;18.13;5.13;;;;;;;;;;5010675;28;20543;-73
2023/06/26 11:52:56;;;;;;;17.63;4.35;;;;;;;;;;5017485;28;20368;-71
2023/06/26 11:55:23;;;;;;;18.50;3.60;;;;;;;;;;5030639;28;20551;-71
2023/06/26 11:57:50;;;;;;;13.77;3.58;;;;;;;;;;5031636;28;20105;-72
2023/06/26 12:00:17;;;;;;;14.68;3.10;;;;;;;;;;5029572;28;20021;-72
2023/06/26 12:02:44;;;;;;;20.55;4.22;;;;;;;;;;5030074;28;20032;-74
2023/06/26 12:05:10;;;;;;;15.90;3.53;;;;;;;;;;5030631;28;20033;-81
2023/06/26 12:07:37;;;;;;;22.92;4.40;;;;;;;;;;5029337;28;20049;-74
2023/06/26 12:10:04;;;;;;;18.63;3.88;;;;;;;;;;5030251;28;20038;-70
2023/06/26 12:12:31;;;;;;;20.38;3.97;;;;;;;;;;5029451;28;20061;-72
2023/06/26 12:14:57;;;;;;;18.02;3.63;;;;;;;;;;5030674;28;20034;-71
2023/06/26 12:17:25;;;;;;;20.33;3.80;;;;;;;;;;5030136;28;20043;-72
2023/06/26 12:19:51;;;;;;;18.85;4.30;;;;;;;;;;5030394;28;20642;-70
2023/06/26 12:22:17;;;;;;;22.40;4.25;;;;;;;;;;5029515;28;20438;-71
2023/06/26 12:24:44;;;;;;;23.25;4.60;;;;;;;;;;5030266;28;20124;-70
2023/06/26 12:27:11;;;;;;;16.50;3.88;;;;;;;;;;5031053;28;20418;-72
2023/06/26 12:29:38;;;;;;;21.88;4.65;;;;;;;;;;5032952;28;20056;-73
2023/06/26 12:32:05;;;;;;;22.65;5.28;;;;;;;;;;5031603;28;20369;-71
2023/06/26 12:34:32;;;;;;;17.23;4.03;;;;;;;;;;5034016;28;20034;-71
2023/06/26 12:37:03;;;;;;;17.42;4.18;;;;;;;;;;5034309;28;20131;-71
2023/06/26 12:39:29;;;;;;;14.13;3.83;;;;;;;;;;5034023;28;20025;-72
2023/06/26 12:41:57;;;;;;;27.42;4.40;;;;;;;;;;5033569;28;20041;-70
2023/06/26 12:44:28;;;;;;;20.50;3.47;;;;;;;;;;5041065;28;20375;-71
2023/06/26 12:46:55;;;;;;;14.93;3.38;;;;;;;;;;5034821;28;20029;-72
2023/06/26 12:49:29;;;;;;;21.45;3.90;;;;;;;;;;5034639;28;20025;-72
2023/06/26 12:51:55;;;;;;;20.70;4.03;;;;;;;;;;5034757;28;20025;-72
2023/06/26 12:54:21;;;;;;;16.17;3.15;;;;;;;;;;5034521;28;20376;-71
2023/06/26 12:56:47;;;;;;;12.05;3.15;;;;;;;;;;5033523;28;20026;-70
2023/06/26 12:59:13;;;;;;;18.10;3.90;;;;;;;;;;5035748;28;20049;-71
2023/06/26 13:01:39;;;;;;;12.70;3.30;;;;;;;;;;5038981;28;20415;-73
2023/06/26 13:04:06;;;;;;;11.73;3.10;;;;;;;;;;5039816;28;20021;-72
2023/06/26 13:06:32;;;;;;;13.40;3.17;;;;;;;;;;5038794;28;20471;-73
2023/06/26 13:08:58;;;;;;;18.85;3.75;;;;;;;;;;5037387;28;20048;-72
2023/06/26 13:11:24;;;;;;;16.10;3.30;;;;;;;;;;5034079;28;20479;-74
2023/06/26 13:13:50;;;;;;;13.02;3.08;;;;;;;;;;5033940;28;20041;-73
2023/06/26 13:16:18;;;;;;;9.15;3.00;;;;;;;;;;5034452;28;20021;-72
2023/06/26 13:18:44;;;;;;;13.23;3.53;;;;;;;;;;5034515;28;20026;-71
2023/06/26 13:21:10;;;;;;;11.10;2.90;;;;;;;;;;5034117;28;20026;-74
2023/06/26 13:23:36;;;;;;;12.48;2.92;;;;;;;;;;5033598;28;20033;-72
2023/06/26 13:26:02;;;;;;;12.45;2.72;;;;;;;;;;5034110;28;20491;-73
2023/06/26 13:28:28;;;;;;;10.35;2.70;;;;;;;;;;5033724;28;20083;-72
2023/06/26 13:30:54;;;;;;;18.17;3.55;;;;;;;;;;5034121;28;20084;-73
2023/06/26 13:33:20;;;;;;;38.67;16.67;;;;;;;;;;5033461;28;20491;-74
2023/06/26 13:35:46;;;;;;;12.77;3.38;;;;;;;;;;5033924;28;20037;-73
2023/06/26 13:38:12;;;;;;;13.82;5.07;;;;;;;;;;5033883;28;20025;-72
2023/06/26 13:40:38;;;;;;;12.75;2.45;;;;;;;;;;5033392;28;20104;-73
2023/06/26 13:43:04;;;;;;;8.00;2.38;;;;;;;;;;5032998;28;20108;-73
2023/06/26 13:45:30;;;;;;;14.57;2.97;;;;;;;;;;5033593;28;20490;-74
2023/06/26 13:47:56;;;;;;;15.52;2.67;;;;;;;;;;5033839;28;20037;-73
2023/06/26 13:50:22;;;;;;;11.68;2.30;;;;;;;;;;5033233;28;20022;-73
2023/06/26 13:52:48;;;;;;;10.32;2.38;;;;;;;;;;5031604;28;20387;-74
2023/06/26 13:55:14;;;;;;;7.45;2.22;;;;;;;;;;5033493;28;20475;-73
2023/06/26 13:57:41;;;;;;;6.72;2.17;;;;;;;;;;5033332;28;20534;-72
2023/06/26 14:00:08;;;;;;;12.38;2.50;;;;;;;;;;5033011;28;20100;-73
2023/06/26 14:02:34;;;;;;;8.13;2.53;;;;;;;;;;5032923;28;20025;-73
2023/06/26 14:05:00;;;;;;;9.55;2.25;;;;;;;;;;5033292;28;20021;-72
2023/06/26 14:07:26;;;;;;;10.50;2.50;;;;;;;;;;5034086;28;20636;-74
2023/06/26 14:09:52;;;;;;;14.07;2.67;;;;;;;;;;5033261;28;20167;-73
2023/06/26 14:12:18;;;;;;;6.72;2.20;;;;;;;;;;5033002;28;20120;-73
2023/06/26 14:14:44;;;;;;;9.95;2.38;;;;;;;;;;5033036;28;20021;-72
2023/06/26 14:17:15;;;;;;;8.15;2.50;;;;;;;;;;5033174;28;20025;-73
2023/06/26 14:19:42;;;;;;;12.60;2.47;;;;;;;;;;5031981;28;20100;-72
2023/06/26 14:22:08;;;;;;;10.60;1.98;;;;;;;;;;5032734;28;20108;-73